Time;durP1;ratioP1;P1;durP2;ratioP2;P2;SDS_P1;SDS_P2;PMS_P1;PMS_P2;Temp;Humidity;BMP_temperature;BMP_pressure;BME280_temperature;BME280_humidity;BME280_pressure;Samples;Min_cycle;Max_cycle;Signal;HPM_P1;HPM_P2
2021/12/26 00:01:20;;;;;;;8.47;7.87;;;;;;;6.58;85.74;97701.88;5007483;27;102819;-67
2021/12/26 00:03:50;;;;;;;9.63;8.93;;;;;;;6.38;86.29;97711.16;5005067;27;103744;-67
2021/12/26 00:06:25;;;;;;;10.30;9.50;;;;;;;6.40;87.66;97706.63;5001215;27;103691;-67
2021/12/26 00:08:58;;;;;;;9.93;9.13;;;;;;;6.38;86.67;97705.91;5014789;27;104168;-67
2021/12/26 00:11:26;;;;;;;10.32;9.52;;;;;;;6.20;87.33;97710.66;5008408;27;103953;-67
2021/12/26 00:13:57;;;;;;;9.52;8.82;;;;;;;6.43;87.73;97706.41;5010744;27;103826;-67
2021/12/26 00:16:27;;;;;;;10.05;9.35;;;;;;;6.45;87.21;97709.78;5013696;27;103000;-67
2021/12/26 00:18:59;;;;;;;9.85;9.15;;;;;;;6.50;87.61;97702.44;5010289;27;103269;-67
2021/12/26 00:21:28;;;;;;;10.90;10.10;;;;;;;6.46;87.55;97702.78;5008133;27;102687;-67
2021/12/26 00:23:58;;;;;;;10.30;9.50;;;;;;;6.48;87.25;97699.09;5005434;27;102756;-67
2021/12/26 00:26:31;;;;;;;9.90;9.20;;;;;;;6.55;87.19;97704.72;5005182;27;104481;-67
2021/12/26 00:29:01;;;;;;;10.00;9.30;;;;;;;6.57;87.35;97701.03;5014859;27;104120;-67
2021/12/26 00:31:30;;;;;;;11.32;10.48;;;;;;;6.52;86.64;97707.56;5011816;27;104025;-67
2021/12/26 00:33:58;;;;;;;12.02;11.13;;;;;;;6.29;88.11;97702.16;5011000;27;104150;-67
2021/12/26 00:36:27;;;;;;;9.40;8.70;;;;;;;6.47;88.25;97701.81;5004753;27;103197;-68
2021/12/26 00:38:56;;;;;;;12.88;11.88;;;;;;;6.22;87.99;97697.47;5031960;27;104126;-67
2021/12/26 00:41:24;;;;;;;10.63;9.83;;;;;;;6.54;87.84;97705.69;5003845;27;102739;-67
2021/12/26 00:43:54;;;;;;;13.70;12.60;;;;;;;6.52;87.24;97707.56;5010646;27;103704;-67
2021/12/26 00:46:25;;;;;;;11.88;10.98;;;;;;;6.54;87.15;97710.94;5016625;27;103213;-67
2021/12/26 00:48:53;;;;;;;13.15;12.10;;;;;;;6.56;87.76;97709.88;5009522;27;103280;-67
2021/12/26 00:51:21;;;;;;;12.57;11.57;;;;;;;6.55;87.82;97707.34;5007678;27;102745;-67
2021/12/26 00:53:51;;;;;;;16.48;14.98;;;;;;;6.18;87.11;97706.47;5018991;27;103429;-67
2021/12/26 00:56:19;;;;;;;17.77;16.27;;;;;;;6.05;88.47;97701.25;5012493;27;104457;-67
2021/12/26 00:58:49;;;;;;;17.85;16.27;;;;;;;6.00;88.20;97699.91;5006277;27;103235;-67
2021/12/26 01:01:18;;;;;;;18.42;16.83;;;;;;;5.77;90.92;97693.59;5012547;27;103128;-68
2021/12/26 01:03:50;;;;;;;15.80;14.55;;;;;;;6.12;90.20;97694.63;5015514;27;102675;-68
2021/12/26 01:06:18;;;;;;;13.17;12.07;;;;;;;6.43;89.00;97695.94;5011083;27;103720;-67
2021/12/26 01:08:50;;;;;;;18.67;17.08;;;;;;;6.35;87.91;97691.22;5017290;27;103277;-67
2021/12/26 01:11:33;;;;;;;16.77;15.35;;;;;;;6.39;88.09;97700.56;5014128;27;102730;-68
2021/12/26 01:14:05;;;;;;;16.33;15.02;;;;;;;6.37;88.38;97699.00;5013762;27;102673;-68
2021/12/26 01:17:09;;;;;;;15.15;13.95;;;;;;;6.50;88.01;97704.22;5004812;27;103249;-67
2021/12/26 01:19:51;;;;;;;19.13;17.52;;;;;;;6.14;87.32;97703.25;5011677;27;103189;-67
2021/12/26 01:22:22;;;;;;;20.00;18.20;;;;;;;6.19;88.12;97711.63;5011907;27;102629;-67
2021/12/26 01:25:01;;;;;;;16.75;15.27;;;;;;;6.43;88.26;97702.97;5020225;27;104366;-67
2021/12/26 01:27:30;;;;;;;18.95;17.30;;;;;;;6.34;87.45;97707.91;5015175;27;104242;-67
2021/12/26 01:29:59;;;;;;;19.13;17.42;;;;;;;6.09;88.96;97715.00;5014322;27;104276;-67
2021/12/26 01:32:28;;;;;;;14.68;13.48;;;;;;;6.33;88.90;97708.88;5016283;27;102696;-67
2021/12/26 01:34:56;;;;;;;18.85;17.27;;;;;;;6.21;88.22;97709.72;5013438;27;103429;-67
2021/12/26 01:37:39;;;;;;;18.45;16.85;;;;;;;6.30;87.91;97714.34;5012797;27;104331;-67
2021/12/26 01:40:41;;;;;;;16.70;15.40;;;;;;;6.52;87.38;97707.56;4958148;27;103220;-67
2021/12/26 01:43:23;;;;;;;19.25;17.58;;;;;;;6.15;87.37;97709.31;5011446;27;102694;-67
2021/12/26 01:46:01;;;;;;;13.80;12.70;;;;;;;6.47;88.16;97709.66;5010440;27;103538;-67
2021/12/26 01:48:29;;;;;;;14.68;13.48;;;;;;;6.63;87.39;97712.88;5009696;27;103864;-66
2021/12/26 01:50:58;;;;;;;17.25;15.85;;;;;;;6.41;85.86;97717.03;5014472;27;104155;-67
2021/12/26 01:53:35;;;;;;;15.38;14.07;;;;;;;6.41;87.05;97706.53;5011628;27;102750;-67
2021/12/26 01:56:06;;;;;;;15.18;13.98;;;;;;;6.60;86.72;97713.09;5011358;27;102888;-67
2021/12/26 01:58:37;;;;;;;15.53;14.23;;;;;;;6.50;86.37;97706.84;5009845;27;102978;-67
2021/12/26 02:01:17;;;;;;;17.47;16.07;;;;;;;6.47;87.09;97714.91;5014425;27;103892;-67
2021/12/26 02:03:49;;;;;;;17.35;15.95;;;;;;;6.50;87.42;97714.69;5033148;27;102711;-67
2021/12/26 02:06:21;;;;;;;15.88;14.63;;;;;;;6.47;88.07;97709.66;5009304;27;104003;-67
2021/12/26 02:08:51;;;;;;;15.98;14.68;;;;;;;6.47;88.34;97715.75;5012796;27;104564;-68
2021/12/26 02:11:19;;;;;;;17.23;15.73;;;;;;;6.36;88.82;97719.16;5014661;27;104170;-67
2021/12/26 02:13:50;;;;;;;14.87;13.67;;;;;;;6.54;87.47;97714.38;5013791;27;102979;-68
2021/12/26 02:16:19;;;;;;;15.82;14.52;;;;;;;6.49;86.39;97713.00;5009646;27;103872;-67
2021/12/26 02:18:47;;;;;;;15.82;14.52;;;;;;;6.47;86.47;97714.91;5019613;27;104195;-67
2021/12/26 02:21:29;;;;;;;16.10;14.70;;;;;;;6.38;87.52;97709.38;5017724;27;103210;-67
2021/12/26 02:24:09;;;;;;;14.20;13.07;;;;;;;6.54;87.43;97709.13;5016525;27;103742;-67
2021/12/26 02:29:30;;;;;;;14.20;13.00;;;;;;;6.64;86.20;97706.69;4996518;27;104109;-67
2021/12/26 02:31:59;;;;;;;14.38;13.18;;;;;;;6.57;86.08;97703.66;5009656;27;103777;-67
2021/12/26 02:34:28;;;;;;;13.90;12.82;;;;;;;6.68;86.14;97708.16;5006909;27;102686;-67
2021/12/26 02:36:57;;;;;;;12.87;11.87;;;;;;;6.64;86.39;97706.69;5015038;27;103889;-67
2021/12/26 02:39:26;;;;;;;13.93;12.82;;;;;;;6.64;86.72;97717.19;5008864;27;104152;-67
2021/12/26 02:41:54;;;;;;;15.40;14.10;;;;;;;6.68;85.75;97708.16;5014179;27;103184;-67
2021/12/26 02:44:22;;;;;;;16.25;14.95;;;;;;;6.45;86.92;97708.94;5014314;27;102626;-68
2021/12/26 02:46:51;;;;;;;17.50;16.03;;;;;;;6.15;87.73;97706.69;5006626;27;103819;-68
2021/12/26 02:49:23;;;;;;;16.88;15.48;;;;;;;6.22;89.08;97705.34;5013722;27;105390;-69
2021/12/26 02:51:52;;;;;;;14.68;13.50;;;;;;;6.45;88.70;97706.34;5005248;27;103125;-68
2021/12/26 02:54:27;;;;;;;17.38;15.85;;;;;;;6.24;88.21;97701.66;5012161;27;102856;-67
2021/12/26 02:56:56;;;;;;;14.93;13.73;;;;;;;6.38;88.37;97704.13;5009033;27;102867;-68
2021/12/26 02:59:25;;;;;;;15.50;14.20;;;;;;;6.37;88.08;97699.81;5011658;27;104045;-67
2021/12/26 03:01:54;;;;;;;16.23;14.93;;;;;;;6.26;88.65;97696.31;5009833;27;105598;-67
2021/12/26 03:04:22;;;;;;;16.30;14.90;;;;;;;6.36;88.71;97708.66;5006410;27;102698;-68
2021/12/26 03:07:01;;;;;;;16.27;14.90;;;;;;;6.17;87.62;97710.91;5013318;27;102862;-67
2021/12/26 03:09:42;;;;;;;17.52;16.13;;;;;;;6.16;88.46;97705.75;5007969;27;103228;-67
2021/12/26 03:12:11;;;;;;;15.40;14.20;;;;;;;6.36;87.97;97702.56;5007810;27;103243;-67
2021/12/26 03:14:40;;;;;;;18.98;17.38;;;;;;;6.08;88.72;97708.91;5011988;27;102643;-67
2021/12/26 03:17:10;;;;;;;15.85;14.63;;;;;;;6.34;88.52;97710.53;5006698;27;102747;-67
2021/12/26 03:19:39;;;;;;;14.40;13.30;;;;;;;6.38;88.50;97706.75;5009529;27;103254;-67
2021/12/26 03:22:07;;;;;;;13.73;12.63;;;;;;;6.61;87.41;97712.16;5010249;27;104119;-67
2021/12/26 03:24:38;;;;;;;12.80;11.80;;;;;;;6.69;87.42;97715.06;5009566;27;102636;-67
2021/12/26 03:27:07;;;;;;;14.32;13.13;;;;;;;6.66;86.56;97715.28;5008143;27;102657;-67
2021/12/26 03:29:37;;;;;;;15.57;14.27;;;;;;;6.60;86.69;97720.97;5001605;27;103145;-67
2021/12/26 03:32:12;;;;;;;18.83;17.23;;;;;;;6.11;88.12;97719.19;5004903;27;105533;-67
2021/12/26 03:34:45;;;;;;;16.33;14.93;;;;;;;6.40;88.70;97722.38;5006412;27;102912;-67
2021/12/26 03:37:18;;;;;;;16.33;14.93;;;;;;;6.43;88.21;97719.53;5012307;27;102995;-67
2021/12/26 03:39:50;;;;;;;19.27;17.58;;;;;;;6.43;86.97;97718.72;5004802;27;103741;-67
2021/12/26 03:42:21;;;;;;;18.50;16.90;;;;;;;6.47;87.25;97720.16;5008322;27;103946;-68
2021/12/26 03:44:50;;;;;;;18.13;16.63;;;;;;;6.46;87.12;97708.84;5013562;27;102676;-67
2021/12/26 03:47:20;;;;;;;16.30;14.90;;;;;;;6.46;86.92;97714.06;5008164;27;103816;-67
2021/12/26 03:49:49;;;;;;;16.50;15.10;;;;;;;6.45;86.01;97716.81;5013232;27;103255;-67
2021/12/26 03:52:18;;;;;;;17.92;16.42;;;;;;;6.33;87.95;97711.50;5002077;27;103014;-68
2021/12/26 03:54:46;;;;;;;20.42;18.63;;;;;;;6.11;88.22;97713.94;5006922;27;102775;-67
2021/12/26 03:57:20;;;;;;;17.35;15.85;;;;;;;6.36;87.56;97716.53;5017534;27;103158;-67
2021/12/26 03:59:48;;;;;;;18.08;16.52;;;;;;;6.43;86.88;97715.13;5008981;27;104237;-67
2021/12/26 04:02:16;;;;;;;17.58;16.08;;;;;;;6.36;87.69;97713.91;5010142;27;103553;-67
2021/12/26 04:04:45;;;;;;;19.95;18.15;;;;;;;5.98;89.18;97710.50;5010546;27;102763;-67
2021/12/26 04:07:14;;;;;;;19.00;17.40;;;;;;;5.91;89.00;97711.88;5004098;27;102722;-67
2021/12/26 04:09:43;;;;;;;20.13;18.33;;;;;;;6.11;88.51;97713.13;5005422;27;104193;-67
2021/12/26 04:12:12;;;;;;;16.77;15.27;;;;;;;6.25;88.32;97711.22;5004440;27;103142;-67
2021/12/26 04:14:42;;;;;;;18.98;17.38;;;;;;;6.31;86.83;97709.94;5003984;27;102586;-67
2021/12/26 04:17:11;;;;;;;16.58;15.18;;;;;;;6.37;87.76;97712.94;5015794;27;103829;-67
2021/12/26 04:19:40;;;;;;;21.33;19.42;;;;;;;6.22;88.35;97711.41;5005120;27;105532;-67
2021/12/26 04:22:09;;;;;;;20.42;18.58;;;;;;;6.12;87.97;97714.81;5006283;27;104969;-67
2021/12/26 04:24:37;;;;;;;17.75;16.25;;;;;;;6.31;87.64;97707.31;4998901;27;103038;-67
2021/12/26 04:27:05;;;;;;;18.73;17.07;;;;;;;6.37;86.86;97709.50;5010609;27;104053;-68
2021/12/26 04:29:34;;;;;;;18.77;17.07;;;;;;;6.29;87.47;97715.28;5009306;27;104222;-67
2021/12/26 04:32:07;;;;;;;17.17;15.73;;;;;;;6.39;87.75;97712.84;5002084;27;103181;-67
2021/12/26 04:34:36;;;;;;;18.50;16.90;;;;;;;6.48;86.89;97706.13;5002199;27;102894;-67
2021/12/26 04:37:04;;;;;;;19.97;18.20;;;;;;;6.43;86.43;97717.75;5005751;27;102918;-67
2021/12/26 04:39:34;;;;;;;20.33;18.63;;;;;;;6.31;87.21;97704.69;5004236;27;104148;-68
2021/12/26 04:42:03;;;;;;;21.35;19.45;;;;;;;6.25;87.32;97708.59;5003414;27;105369;-67
2021/12/26 04:44:52;;;;;;;19.45;17.75;;;;;;;6.47;87.77;97709.66;4990660;27;103041;-67
2021/12/26 04:47:42;;;;;;;19.33;17.60;;;;;;;6.51;87.27;97717.25;5001463;27;103758;-67
2021/12/26 04:50:13;;;;;;;20.77;18.98;;;;;;;6.45;87.43;97716.81;5009951;27;106448;-67
2021/12/26 04:52:46;;;;;;;21.70;19.70;;;;;;;6.18;88.22;97709.94;5002805;27;103774;-67
2021/12/26 04:55:20;;;;;;;19.42;17.73;;;;;;;6.44;87.50;97710.72;5003960;27;102679;-67
2021/12/26 04:57:50;;;;;;;15.43;14.10;;;;;;;6.61;87.14;97713.00;5011401;27;103805;-67
2021/12/26 05:00:21;;;;;;;16.17;14.67;;;;;;;6.66;86.74;97710.03;5004204;27;104242;-68
2021/12/26 05:02:53;;;;;;;17.17;15.60;;;;;;;6.64;85.96;97711.94;5010602;27;103980;-67
2021/12/26 05:05:21;;;;;;;19.00;17.40;;;;;;;6.63;86.46;97715.50;5009356;27;102736;-68
2021/12/26 05:07:50;;;;;;;18.40;16.80;;;;;;;6.54;86.16;97710.94;5003150;27;103628;-67
2021/12/26 05:10:19;;;;;;;22.50;20.50;;;;;;;6.33;87.60;97711.50;5008135;27;104224;-67
2021/12/26 05:12:47;;;;;;;18.38;16.77;;;;;;;6.56;87.41;97709.03;5011181;27;103190;-67
2021/12/26 05:15:21;;;;;;;23.50;21.40;;;;;;;6.26;87.35;97712.88;5005604;27;102928;-67
2021/12/26 05:17:50;;;;;;;21.23;19.33;;;;;;;6.47;87.24;97715.75;5011744;27;104051;-67
2021/12/26 05:20:22;;;;;;;22.33;20.33;;;;;;;6.43;86.83;97716.09;5007026;27;104247;-67
2021/12/26 05:22:53;;;;;;;22.63;20.63;;;;;;;6.38;87.48;97717.25;5002929;27;105101;-67
2021/12/26 05:25:22;;;;;;;20.13;18.33;;;;;;;6.46;87.63;97708.00;4997671;27;102690;-67
2021/12/26 05:27:52;;;;;;;20.70;18.90;;;;;;;6.57;87.46;97708.91;5007840;27;104045;-67
2021/12/26 05:30:23;;;;;;;23.33;21.23;;;;;;;6.25;87.63;97703.34;5012241;27;105009;-67
2021/12/26 05:33:09;;;;;;;19.45;17.75;;;;;;;6.37;88.12;97705.06;5011917;27;103208;-67
2021/12/26 05:35:42;;;;;;;19.17;17.48;;;;;;;6.41;88.19;97695.22;5015279;27;102675;-67
2021/12/26 05:38:10;;;;;;;21.80;19.90;;;;;;;6.29;87.80;97701.31;5017770;27;102905;-67
2021/12/26 05:40:44;;;;;;;21.53;19.63;;;;;;;6.20;87.66;97707.22;5004080;27;105424;-67
2021/12/26 05:43:13;;;;;;;21.30;19.40;;;;;;;6.25;88.52;97703.34;5008202;27;105675;-67
2021/12/26 05:45:42;;;;;;;19.92;18.23;;;;;;;6.51;87.50;97706.75;5007481;27;102656;-67
2021/12/26 05:48:17;;;;;;;18.85;17.23;;;;;;;6.57;87.53;97705.47;5012250;27;103496;-66
2021/12/26 05:50:48;;;;;;;19.83;18.13;;;;;;;6.64;86.95;97712.78;5004003;27;105588;-67
2021/12/26 05:53:35;;;;;;;19.37;17.67;;;;;;;6.63;87.29;97705.00;5008702;27;102989;-67
2021/12/26 05:56:05;;;;;;;23.17;21.08;;;;;;;6.42;86.65;97704.75;5015392;27;103013;-67
2021/12/26 05:58:35;;;;;;;20.17;18.37;;;;;;;6.61;87.20;97709.53;5030736;27;103500;-67
2021/12/26 06:01:04;;;;;;;19.30;17.65;;;;;;;6.63;86.79;97705.84;5008773;27;103201;-67
2021/12/26 06:03:34;;;;;;;20.60;18.70;;;;;;;6.54;86.30;97697.81;5017610;27;103209;-67
2021/12/26 06:06:05;;;;;;;19.52;17.83;;;;;;;6.61;86.38;97704.28;5012559;27;103988;-67
2021/12/26 06:08:42;;;;;;;21.20;19.40;;;;;;;6.64;85.90;97704.06;5013841;27;103038;-67
2021/12/26 06:11:10;;;;;;;19.80;18.00;;;;;;;6.65;86.26;97709.19;5006840;27;103335;-67
2021/12/26 06:13:39;;;;;;;18.23;16.63;;;;;;;6.71;86.59;97705.31;5011426;27;105858;-66
2021/12/26 06:16:07;;;;;;;20.98;19.08;;;;;;;6.64;86.06;97707.53;5009089;27;103144;-67
2021/12/26 06:18:38;;;;;;;19.92;18.23;;;;;;;6.63;86.64;97708.47;5005048;27;103551;-67
2021/12/26 06:21:26;;;;;;;24.55;22.23;;;;;;;6.14;87.26;97707.66;5018175;27;104221;-67
2021/12/26 06:23:57;;;;;;;20.48;18.65;;;;;;;6.28;88.54;97700.50;5007473;27;102534;-66
2021/12/26 06:26:32;;;;;;;22.48;20.48;;;;;;;6.10;89.02;97699.16;5011202;27;102880;-66
2021/12/26 06:29:08;;;;;;;22.30;20.35;;;;;;;6.07;89.60;97703.75;5013498;27;103949;-66
2021/12/26 06:32:06;;;;;;;22.83;20.70;;;;;;;5.97;90.12;97700.13;5005209;27;103325;-67
2021/12/26 06:35:08;;;;;;;24.80;22.45;;;;;;;5.72;90.73;97707.03;4979432;27;103122;-66
2021/12/26 06:38:01;;;;;;;24.75;22.48;;;;;;;5.78;91.65;97705.78;5007662;27;103068;-68
2021/12/26 06:40:48;;;;;;;24.88;22.48;;;;;;;5.65;91.49;97712.78;5006513;27;103796;-68
2021/12/26 06:43:37;;;;;;;23.80;21.63;;;;;;;5.62;92.49;97707.75;5000906;27;103654;-68
2021/12/26 06:46:36;;;;;;;24.40;22.20;;;;;;;5.78;91.69;97711.00;4989373;27;103793;-68
2021/12/26 06:49:25;;;;;;;21.90;19.90;;;;;;;5.93;91.89;97711.75;4993670;27;102823;-68
2021/12/26 06:51:56;;;;;;;21.47;19.47;;;;;;;6.06;90.58;97716.06;5001193;27;103534;-68
2021/12/26 06:54:26;;;;;;;24.85;22.45;;;;;;;5.81;90.45;97716.03;5003951;27;103961;-68
2021/12/26 06:56:56;;;;;;;24.10;21.83;;;;;;;5.68;91.04;97721.28;5008322;27;104452;-68
2021/12/26 06:59:26;;;;;;;22.35;20.25;;;;;;;5.96;90.77;97725.50;5012027;27;102852;-68
2021/12/26 07:01:55;;;;;;;23.55;21.35;;;;;;;5.92;89.64;97724.03;5014649;27;103677;-68
2021/12/26 07:04:35;;;;;;;21.73;19.65;;;;;;;5.93;90.61;97723.09;5004790;27;104862;-69
2021/12/26 07:07:04;;;;;;;22.20;20.17;;;;;;;6.04;90.23;97725.81;5007337;27;103212;-69
2021/12/26 07:09:35;;;;;;;21.63;19.67;;;;;;;6.14;90.03;97724.22;5006431;27;102709;-69
2021/12/26 07:12:03;;;;;;;21.58;19.58;;;;;;;6.25;89.55;97726.94;5011108;27;103123;-68
2021/12/26 07:14:41;;;;;;;21.73;19.73;;;;;;;6.34;88.92;97721.03;5011963;27;103508;-68
2021/12/26 07:17:11;;;;;;;20.98;18.98;;;;;;;6.19;89.03;97723.91;5008440;27;105408;-69
2021/12/26 07:19:42;;;;;;;17.47;15.87;;;;;;;6.36;89.08;97729.66;5010581;27;104662;-68
2021/12/26 07:22:23;;;;;;;20.88;18.98;;;;;;;6.43;88.01;97726.59;5016264;27;104213;-68
2021/12/26 07:24:53;;;;;;;19.60;17.88;;;;;;;6.49;88.34;97728.75;5007906;27;103230;-68
2021/12/26 07:27:22;;;;;;;22.27;20.30;;;;;;;6.36;87.81;97734.91;5003322;27;103255;-68
2021/12/26 07:30:16;;;;;;;20.75;18.95;;;;;;;6.33;88.12;97735.09;4998614;27;102941;-68
2021/12/26 07:32:44;;;;;;;20.43;18.60;;;;;;;6.43;88.44;97734.47;5011841;27;103146;-68
2021/12/26 07:35:13;;;;;;;19.02;17.35;;;;;;;6.51;88.40;97740.00;5012824;27;104138;-68
2021/12/26 07:37:42;;;;;;;20.17;18.37;;;;;;;6.58;87.41;97741.22;5011479;27;103313;-68
2021/12/26 07:40:13;;;;;;;18.58;16.80;;;;;;;6.66;87.54;97742.38;5012419;27;103064;-68
2021/12/26 07:42:42;;;;;;;17.38;15.88;;;;;;;6.75;87.67;97743.50;5014910;27;102753;-68
2021/12/26 07:45:48;;;;;;;19.65;17.88;;;;;;;6.77;87.05;97749.47;4921728;28;103199;-69
2021/12/26 07:48:16;;;;;;;17.92;16.27;;;;;;;6.71;87.59;97748.13;4914819;28;103013;-69
2021/12/26 07:50:45;;;;;;;19.25;17.52;;;;;;;6.59;88.13;97750.78;4951428;27;104178;-69
2021/12/26 07:53:46;;;;;;;23.40;21.10;;;;;;;6.25;88.69;97753.16;4948365;28;102752;-68
2021/12/26 07:56:55;;;;;;;18.42;16.73;;;;;;;6.70;88.65;97758.75;4922369;28;103186;-68
2021/12/26 07:59:42;;;;;;;19.80;17.93;;;;;;;6.80;87.71;97754.50;4924354;28;103200;-69
2021/12/26 08:02:28;;;;;;;18.00;16.42;;;;;;;6.82;87.46;97757.88;4971902;28;102884;-68
2021/12/26 08:05:23;;;;;;;17.17;15.67;;;;;;;6.93;87.41;97755.31;4968753;28;102971;-68
2021/12/26 08:08:03;;;;;;;17.55;15.98;;;;;;;7.01;87.32;97760.84;4978356;28;105068;-73
2021/12/26 08:10:31;;;;;;;15.52;14.23;;;;;;;7.12;87.21;97760.91;4977663;28;105949;-72
2021/12/26 08:13:00;;;;;;;17.92;16.33;;;;;;;6.99;86.79;97767.97;4981138;28;103130;-73
2021/12/26 08:15:28;;;;;;;15.93;14.52;;;;;;;7.06;86.58;97761.34;4976365;28;103698;-72
2021/12/26 08:17:56;;;;;;;14.95;13.65;;;;;;;7.17;86.95;97764.03;4980059;28;104307;-73
2021/12/26 08:20:24;;;;;;;19.83;17.85;;;;;;;6.85;85.67;97758.47;4977045;28;103936;-73
2021/12/26 08:22:53;;;;;;;22.27;20.27;;;;;;;6.37;89.75;97762.78;4999001;28;102783;-72
2021/12/26 08:25:21;;;;;;;21.30;19.30;;;;;;;6.46;90.03;97760.50;4997027;28;103484;-72
2021/12/26 08:27:49;;;;;;;22.63;20.43;;;;;;;6.16;91.56;97761.66;4992752;28;103689;-73
2021/12/26 08:30:18;;;;;;;18.23;16.63;;;;;;;6.57;90.91;97768.44;4994745;28;104502;-72
2021/12/26 08:32:50;;;;;;;19.88;18.02;;;;;;;6.57;89.98;97763.19;4978155;28;102776;-72
2021/12/26 08:35:18;;;;;;;20.77;18.77;;;;;;;6.58;90.38;97759.59;4980593;28;102620;-72
2021/12/26 08:37:47;;;;;;;17.60;16.00;;;;;;;6.84;91.07;97766.47;4995793;28;102983;-73
2021/12/26 08:40:15;;;;;;;18.23;16.65;;;;;;;6.95;89.93;97769.16;4998770;28;103204;-73
2021/12/26 08:42:44;;;;;;;17.00;15.50;;;;;;;7.13;89.55;97761.75;4997759;28;102586;-73
2021/12/26 08:45:12;;;;;;;15.63;14.33;;;;;;;7.22;89.07;97761.03;4996832;28;102926;-73
2021/12/26 08:47:42;;;;;;;18.90;17.17;;;;;;;6.94;88.61;97757.81;4996409;28;103174;-73
2021/12/26 08:50:12;;;;;;;18.10;16.60;;;;;;;7.04;89.03;97763.25;4978218;28;104289;-72
2021/12/26 08:52:42;;;;;;;18.10;16.48;;;;;;;6.89;88.88;97757.31;4977474;28;102939;-72
2021/12/26 08:55:11;;;;;;;21.80;19.73;;;;;;;6.02;91.98;97761.78;4994891;28;103534;-73
2021/12/26 08:57:39;;;;;;;21.70;19.70;;;;;;;6.05;94.66;97766.81;4998110;28;104103;-72
2021/12/26 09:00:11;;;;;;;18.90;17.30;;;;;;;6.60;93.85;97769.03;4997693;28;103197;-73
2021/12/26 09:02:39;;;;;;;18.50;16.90;;;;;;;6.83;91.74;97762.16;4979021;28;102768;-73
2021/12/26 09:05:11;;;;;;;16.95;15.45;;;;;;;7.03;90.77;97766.81;4978912;28;102741;-73
2021/12/26 09:07:40;;;;;;;17.17;15.68;;;;;;;7.13;89.93;97759.94;4981524;28;104393;-72
2021/12/26 09:10:09;;;;;;;17.83;16.20;;;;;;;7.11;89.51;97764.47;5003046;28;103305;-72
2021/12/26 09:12:38;;;;;;;19.40;17.60;;;;;;;7.00;89.05;97774.91;4980688;28;103014;-72
2021/12/26 09:15:09;;;;;;;17.77;16.17;;;;;;;7.33;89.77;97777.69;4978789;28;103774;-73
2021/12/26 09:17:37;;;;;;;19.13;17.48;;;;;;;7.30;89.42;97780.56;5000054;28;104009;-72
2021/12/26 09:20:09;;;;;;;15.85;14.38;;;;;;;7.58;89.05;97772.31;4979485;28;103044;-72
2021/12/26 09:22:40;;;;;;;20.77;18.88;;;;;;;7.43;87.57;97777.88;5000845;28;102734;-73
2021/12/26 09:25:09;;;;;;;17.98;16.38;;;;;;;7.71;88.45;97768.75;4976762;28;102839;-72
2021/12/26 09:27:37;;;;;;;19.38;17.50;;;;;;;7.82;87.61;97772.25;5001193;28;103704;-72
2021/12/26 09:30:07;;;;;;;23.63;21.42;;;;;;;6.83;90.85;97780.53;5001382;28;103262;-73
2021/12/26 09:32:38;;;;;;;17.58;16.05;;;;;;;7.40;90.99;97778.94;5001342;28;103747;-73
2021/12/26 09:35:07;;;;;;;18.83;17.13;;;;;;;7.68;89.48;97784.75;4981040;28;103634;-73
2021/12/26 09:37:38;;;;;;;20.30;18.50;;;;;;;7.81;88.28;97782.88;5002639;28;103970;-73
2021/12/26 09:40:08;;;;;;;20.05;18.25;;;;;;;7.63;89.09;97792.16;5003674;28;103256;-73
2021/12/26 09:42:37;;;;;;;19.98;18.17;;;;;;;7.37;90.59;97791.47;5001092;28;102579;-73
2021/12/26 09:45:08;;;;;;;17.60;16.02;;;;;;;7.73;89.31;97791.34;4997419;28;104379;-73
2021/12/26 09:47:37;;;;;;;21.45;19.50;;;;;;;7.19;90.70;97783.13;4999287;28;104021;-69
2021/12/26 09:50:07;;;;;;;21.65;19.55;;;;;;;7.09;92.33;97784.75;4999695;28;103349;-68
2021/12/26 09:52:35;;;;;;;24.15;21.80;;;;;;;6.66;92.76;97783.50;4992897;28;102627;-68
2021/12/26 09:55:06;;;;;;;25.80;23.10;;;;;;;6.22;97.46;97779.63;5002188;28;102693;-68
2021/12/26 09:57:34;;;;;;;24.42;22.00;;;;;;;6.69;95.32;97770.19;4999413;28;104010;-67
2021/12/26 10:00:17;;;;;;;23.00;20.77;;;;;;;6.96;95.76;97778.72;4993765;28;103197;-67
2021/12/26 10:02:46;;;;;;;19.73;17.90;;;;;;;7.56;93.49;97773.38;4999356;28;103151;-66
2021/12/26 10:05:14;;;;;;;23.65;21.45;;;;;;;7.13;94.22;97773.06;4999152;28;104045;-66
2021/12/26 10:07:42;;;;;;;21.67;19.77;;;;;;;7.70;92.73;97761.81;4999250;28;103217;-66
2021/12/26 10:10:12;;;;;;;21.85;19.83;;;;;;;7.56;90.62;97761.06;4982459;28;103479;-67
2021/12/26 10:12:41;;;;;;;24.13;21.83;;;;;;;7.16;93.07;97762.34;4997233;28;103312;-66
2021/12/26 10:15:10;;;;;;;21.67;19.70;;;;;;;7.53;93.14;97756.03;4983734;28;102998;-66
2021/12/26 10:17:38;;;;;;;19.13;17.42;;;;;;;7.87;91.84;97749.09;4998298;27;103645;-67
2021/12/26 10:20:09;;;;;;;18.63;17.02;;;;;;;8.10;90.02;97747.31;4995412;28;103347;-67
2021/12/26 10:22:38;;;;;;;18.30;16.67;;;;;;;8.41;88.98;97733.50;4977154;28;102953;-66
2021/12/26 10:25:14;;;;;;;19.67;17.87;;;;;;;8.16;89.82;97734.53;4998750;28;103051;-66
2021/12/26 10:27:45;;;;;;;19.63;17.92;;;;;;;7.71;92.55;97729.34;4978319;28;104103;-67
2021/12/26 10:30:17;;;;;;;22.53;20.40;;;;;;;7.67;91.44;97731.34;4995646;28;104081;-67
2021/12/26 10:32:47;;;;;;;19.27;17.58;;;;;;;7.99;91.82;97731.53;4991166;28;103057;-67
2021/12/26 10:35:18;;;;;;;17.90;16.30;;;;;;;8.49;89.85;97728.44;4991623;28;103843;-68
2021/12/26 10:37:50;;;;;;;18.77;17.13;;;;;;;8.07;91.08;97726.50;4973548;28;103184;-68
2021/12/26 10:40:22;;;;;;;20.10;18.27;;;;;;;7.98;89.05;97724.59;4977845;28;104202;-66
2021/12/26 10:42:53;;;;;;;18.60;17.00;;;;;;;8.16;91.19;97718.75;4992803;28;103442;-67
2021/12/26 10:45:27;;;;;;;21.75;19.75;;;;;;;7.57;94.35;97725.97;4994383;28;103884;-67
2021/12/26 10:47:57;;;;;;;21.15;19.25;;;;;;;8.08;92.50;97721.13;4975733;28;104027;-67
2021/12/26 10:50:28;;;;;;;17.13;15.65;;;;;;;8.51;90.79;97721.25;4991298;28;103241;-67
2021/12/26 10:52:59;;;;;;;19.88;18.10;;;;;;;8.14;91.24;97719.81;4996982;28;102590;-67
2021/12/26 10:55:31;;;;;;;19.23;17.43;;;;;;;8.41;90.57;97722.97;4992336;28;102911;-67
2021/12/26 10:58:02;;;;;;;16.67;15.27;;;;;;;8.72;89.12;97719.56;4994061;28;103441;-67
2021/12/26 11:00:33;;;;;;;19.48;17.75;;;;;;;8.66;88.84;97724.47;4996354;28;103228;-67
2021/12/26 11:03:05;;;;;;;19.92;18.13;;;;;;;8.10;90.41;97721.00;4974173;28;102883;-67
2021/12/26 11:05:35;;;;;;;15.07;13.77;;;;;;;8.64;89.92;97724.63;4993633;28;103968;-67
2021/12/26 11:08:05;;;;;;;16.88;15.38;;;;;;;8.83;87.68;97716.06;4976116;28;103480;-67
2021/12/26 11:10:39;;;;;;;18.70;17.10;;;;;;;8.60;87.72;97717.91;4976924;28;104121;-67
2021/12/26 11:13:09;;;;;;;18.70;17.05;;;;;;;8.69;87.63;97714.53;4998544;28;102711;-67
2021/12/26 11:15:40;;;;;;;19.60;17.85;;;;;;;7.91;90.95;97710.25;4992772;28;102625;-66
2021/12/26 11:18:10;;;;;;;17.08;15.60;;;;;;;8.66;90.98;97709.53;4990126;28;104169;-67
2021/12/26 11:20:40;;;;;;;21.02;19.02;;;;;;;8.37;89.31;97705.72;4973890;28;104469;-67
2021/12/26 11:23:10;;;;;;;18.60;16.80;;;;;;;8.72;89.05;97706.41;4990222;28;103230;-68
2021/12/26 11:25:43;;;;;;;16.88;15.38;;;;;;;9.08;88.94;97709.63;4995897;28;104311;-68
2021/12/26 11:28:12;;;;;;;17.73;16.13;;;;;;;9.09;86.35;97713.97;4994978;28;104421;-68
2021/12/26 11:30:41;;;;;;;19.40;17.70;;;;;;;8.51;89.78;97709.88;4995887;28;104222;-68
2021/12/26 11:33:11;;;;;;;17.63;16.13;;;;;;;8.98;90.63;97708.72;4996812;28;102965;-68
2021/12/26 11:35:40;;;;;;;16.63;15.23;;;;;;;9.57;88.10;97701.97;4978032;28;102808;-68
2021/12/26 11:38:11;;;;;;;16.40;15.00;;;;;;;9.79;85.42;97699.22;4996067;28;103819;-68
2021/12/26 11:41:05;;;;;;;17.75;16.15;;;;;;;8.70;89.79;97697.78;4996394;28;103159;-68
2021/12/26 11:44:06;;;;;;;15.20;13.90;;;;;;;9.92;86.56;97685.81;4995745;28;102684;-68